sensor_id;sensor_type;location;lat;lon;timestamp;temperature;humidity
69715;HTU21D;56981;53.532;49.398;2024-03-08T00:00:27;-7.91;75.25
69715;HTU21D;56981;53.532;49.398;2024-03-08T00:02:53;-7.87;75.24
69715;HTU21D;56981;53.532;49.398;2024-03-08T00:05:20;-7.90;74.61
69715;HTU21D;56981;53.532;49.398;2024-03-08T00:07:47;-7.93;74.61
69715;HTU21D;56981;53.532;49.398;2024-03-08T00:10:13;-7.98;74.73
69715;HTU21D;56981;53.532;49.398;2024-03-08T00:12:41;-7.98;74.86
69715;HTU21D;56981;53.532;49.398;2024-03-08T00:15:11;-8.03;74.80
69715;HTU21D;56981;53.532;49.398;2024-03-08T00:17:43;-8.07;74.96
69715;HTU21D;56981;53.532;49.398;2024-03-08T00:20:10;-8.09;74.75
69715;HTU21D;56981;53.532;49.398;2024-03-08T00:22:37;-8.09;74.78
69715;HTU21D;56981;53.532;49.398;2024-03-08T00:25:05;-8.12;74.68
69715;HTU21D;56981;53.532;49.398;2024-03-08T00:27:33;-8.21;74.73
69715;HTU21D;56981;53.532;49.398;2024-03-08T00:30:00;-8.25;75.05
69715;HTU21D;56981;53.532;49.398;2024-03-08T00:32:26;-8.24;75.07
69715;HTU21D;56981;53.532;49.398;2024-03-08T00:34:57;-8.28;74.94
69715;HTU21D;56981;53.532;49.398;2024-03-08T00:37:24;-8.30;74.99
69715;HTU21D;56981;53.532;49.398;2024-03-08T00:39:53;-8.30;74.87
69715;HTU21D;56981;53.532;49.398;2024-03-08T00:42:20;-8.30;74.91
69715;HTU21D;56981;53.532;49.398;2024-03-08T00:44:47;-8.39;74.91
69715;HTU21D;56981;53.532;49.398;2024-03-08T00:47:14;-8.39;74.96
69715;HTU21D;56981;53.532;49.398;2024-03-08T00:49:41;-8.44;74.93
69715;HTU21D;56981;53.532;49.398;2024-03-08T00:52:08;-8.52;75.06
69715;HTU21D;56981;53.532;49.398;2024-03-08T00:54:35;-8.54;74.96
69715;HTU21D;56981;53.532;49.398;2024-03-08T00:57:04;-8.56;74.95
69715;HTU21D;56981;53.532;49.398;2024-03-08T00:59:32;-8.60;75.00
69715;HTU21D;56981;53.532;49.398;2024-03-08T01:01:59;-8.62;74.86
69715;HTU21D;56981;53.532;49.398;2024-03-08T01:04:28;-8.60;74.83
69715;HTU21D;56981;53.532;49.398;2024-03-08T01:06:59;-8.62;74.76
69715;HTU21D;56981;53.532;49.398;2024-03-08T01:09:26;-8.64;74.52
69715;HTU21D;56981;53.532;49.398;2024-03-08T01:11:53;-8.67;74.38
69715;HTU21D;56981;53.532;49.398;2024-03-08T01:14:21;-8.70;74.47
69715;HTU21D;56981;53.532;49.398;2024-03-08T01:16:49;-8.71;74.35
69715;HTU21D;56981;53.532;49.398;2024-03-08T01:19:15;-8.71;74.10
69715;HTU21D;56981;53.532;49.398;2024-03-08T01:21:42;-8.74;73.91
69715;HTU21D;56981;53.532;49.398;2024-03-08T01:24:08;-8.73;73.93
69715;HTU21D;56981;53.532;49.398;2024-03-08T01:26:35;-8.73;73.86
69715;HTU21D;56981;53.532;49.398;2024-03-08T01:29:02;-8.75;73.80
69715;HTU21D;56981;53.532;49.398;2024-03-08T01:31:31;-8.73;73.47
69715;HTU21D;56981;53.532;49.398;2024-03-08T01:33:58;-8.74;73.74
69715;HTU21D;56981;53.532;49.398;2024-03-08T01:36:25;-8.73;73.52
69715;HTU21D;56981;53.532;49.398;2024-03-08T01:38:52;-8.73;73.24
69715;HTU21D;56981;53.532;49.398;2024-03-08T01:41:18;-8.73;73.28
69715;HTU21D;56981;53.532;49.398;2024-03-08T01:43:45;-8.75;73.18
69715;HTU21D;56981;53.532;49.398;2024-03-08T01:46:15;-8.75;73.32
69715;HTU21D;56981;53.532;49.398;2024-03-08T01:48:42;-8.75;73.09
69715;HTU21D;56981;53.532;49.398;2024-03-08T01:51:09;-8.74;72.97
69715;HTU21D;56981;53.532;49.398;2024-03-08T01:53:38;-8.72;72.84
69715;HTU21D;56981;53.532;49.398;2024-03-08T01:56:06;-8.73;72.71
69715;HTU21D;56981;53.532;49.398;2024-03-08T01:58:33;-8.73;72.74
69715;HTU21D;56981;53.532;49.398;2024-03-08T02:01:00;-8.75;72.96
69715;HTU21D;56981;53.532;49.398;2024-03-08T02:03:31;-8.77;72.85
69715;HTU21D;56981;53.532;49.398;2024-03-08T02:05:58;-8.78;72.80
69715;HTU21D;56981;53.532;49.398;2024-03-08T02:08:27;-8.78;72.85
69715;HTU21D;56981;53.532;49.398;2024-03-08T02:10:54;-8.81;72.80
69715;HTU21D;56981;53.532;49.398;2024-03-08T02:13:20;-8.83;72.96
69715;HTU21D;56981;53.532;49.398;2024-03-08T02:15:57;-8.84;73.08
69715;HTU21D;56981;53.532;49.398;2024-03-08T02:18:28;-8.88;73.09
69715;HTU21D;56981;53.532;49.398;2024-03-08T02:20:56;-8.88;73.22
69715;HTU21D;56981;53.532;49.398;2024-03-08T02:23:23;-8.92;73.18
69715;HTU21D;56981;53.532;49.398;2024-03-08T02:25:53;-8.92;73.48
69715;HTU21D;56981;53.532;49.398;2024-03-08T02:28:20;-8.94;73.75
69715;HTU21D;56981;53.532;49.398;2024-03-08T02:30:47;-8.99;73.64
69715;HTU21D;56981;53.532;49.398;2024-03-08T02:33:17;-9.00;73.86
69715;HTU21D;56981;53.532;49.398;2024-03-08T02:35:44;-9.04;73.83
69715;HTU21D;56981;53.532;49.398;2024-03-08T02:38:16;-9.04;74.06
69715;HTU21D;56981;53.532;49.398;2024-03-08T02:40:43;-9.04;74.02
69715;HTU21D;56981;53.532;49.398;2024-03-08T02:43:10;-9.09;74.24
69715;HTU21D;56981;53.532;49.398;2024-03-08T02:45:36;-9.09;74.44
69715;HTU21D;56981;53.532;49.398;2024-03-08T02:48:03;-9.14;74.46
69715;HTU21D;56981;53.532;49.398;2024-03-08T02:50:29;-9.17;74.63
69715;HTU21D;56981;53.532;49.398;2024-03-08T02:52:56;-9.19;74.84
69715;HTU21D;56981;53.532;49.398;2024-03-08T02:55:22;-9.22;74.97
69715;HTU21D;56981;53.532;49.398;2024-03-08T02:57:48;-9.23;75.12
69715;HTU21D;56981;53.532;49.398;2024-03-08T03:00:15;-9.25;75.23
69715;HTU21D;56981;53.532;49.398;2024-03-08T03:02:41;-9.29;75.30
69715;HTU21D;56981;53.532;49.398;2024-03-08T03:05:08;-9.33;75.47
69715;HTU21D;56981;53.532;49.398;2024-03-08T03:07:35;-9.34;75.74
69715;HTU21D;56981;53.532;49.398;2024-03-08T03:10:02;-9.33;75.63
69715;HTU21D;56981;53.532;49.398;2024-03-08T03:12:29;-9.38;75.81
69715;HTU21D;56981;53.532;49.398;2024-03-08T03:14:59;-9.39;75.98
69715;HTU21D;56981;53.532;49.398;2024-03-08T03:17:26;-9.37;75.97
69715;HTU21D;56981;53.532;49.398;2024-03-08T03:19:53;-9.33;75.63
69715;HTU21D;56981;53.532;49.398;2024-03-08T03:22:19;-9.34;75.67
69715;HTU21D;56981;53.532;49.398;2024-03-08T03:24:46;-9.30;75.61
69715;HTU21D;56981;53.532;49.398;2024-03-08T03:27:13;-9.24;75.19
69715;HTU21D;56981;53.532;49.398;2024-03-08T03:29:41;-9.15;74.88
69715;HTU21D;56981;53.532;49.398;2024-03-08T03:32:12;-9.03;74.50
69715;HTU21D;56981;53.532;49.398;2024-03-08T03:34:39;-8.54;73.41
69715;HTU21D;56981;53.532;49.398;2024-03-08T03:37:06;-8.05;70.33
69715;HTU21D;56981;53.532;49.398;2024-03-08T03:39:39;-7.39;68.04
69715;HTU21D;56981;53.532;49.398;2024-03-08T03:42:19;-6.68;64.39
69715;HTU21D;56981;53.532;49.398;2024-03-08T03:44:47;-6.74;64.05
69715;HTU21D;56981;53.532;49.398;2024-03-08T03:47:14;-6.42;63.21
69715;HTU21D;56981;53.532;49.398;2024-03-08T03:49:41;-6.68;63.92
69715;HTU21D;56981;53.532;49.398;2024-03-08T03:52:07;-6.72;64.60
69715;HTU21D;56981;53.532;49.398;2024-03-08T03:54:34;-6.71;64.24
69715;HTU21D;56981;53.532;49.398;2024-03-08T03:57:00;-6.68;64.39
69715;HTU21D;56981;53.532;49.398;2024-03-08T03:59:27;-6.71;64.12
69715;HTU21D;56981;53.532;49.398;2024-03-08T04:01:53;-6.49;63.69
69715;HTU21D;56981;53.532;49.398;2024-03-08T04:04:21;-6.50;63.18
69715;HTU21D;56981;53.532;49.398;2024-03-08T04:06:47;-6.47;63.04
69715;HTU21D;56981;53.532;49.398;2024-03-08T04:09:13;-6.61;63.82
69715;HTU21D;56981;53.532;49.398;2024-03-08T04:11:40;-6.68;64.03
69715;HTU21D;56981;53.532;49.398;2024-03-08T04:14:06;-6.78;64.09
69715;HTU21D;56981;53.532;49.398;2024-03-08T04:16:32;-6.80;64.69
69715;HTU21D;56981;53.532;49.398;2024-03-08T04:18:59;-6.75;64.06
69715;HTU21D;56981;53.532;49.398;2024-03-08T04:21:26;-6.77;64.22
69715;HTU21D;56981;53.532;49.398;2024-03-08T04:23:53;-6.58;63.63
69715;HTU21D;56981;53.532;49.398;2024-03-08T04:26:19;-6.76;63.60
69715;HTU21D;56981;53.532;49.398;2024-03-08T04:28:47;-6.92;64.72
69715;HTU21D;56981;53.532;49.398;2024-03-08T04:31:13;-6.95;64.66
69715;HTU21D;56981;53.532;49.398;2024-03-08T04:33:44;-7.03;64.95
69715;HTU21D;56981;53.532;49.398;2024-03-08T04:36:10;-6.88;64.35
69715;HTU21D;56981;53.532;49.398;2024-03-08T04:38:42;-6.50;63.00
69715;HTU21D;56981;53.532;49.398;2024-03-08T04:41:09;-6.26;62.00
69715;HTU21D;56981;53.532;49.398;2024-03-08T04:43:36;-5.90;60.85
69715;HTU21D;56981;53.532;49.398;2024-03-08T04:46:02;-5.50;59.66
69715;HTU21D;56981;53.532;49.398;2024-03-08T04:48:29;-4.82;56.89
69715;HTU21D;56981;53.532;49.398;2024-03-08T04:50:56;-3.94;54.87
69715;HTU21D;56981;53.532;49.398;2024-03-08T04:53:23;-3.52;53.02
69715;HTU21D;56981;53.532;49.398;2024-03-08T04:55:49;-3.32;51.60
69715;HTU21D;56981;53.532;49.398;2024-03-08T04:58:16;-2.89;50.27
69715;HTU21D;56981;53.532;49.398;2024-03-08T05:00:42;-2.50;49.82
69715;HTU21D;56981;53.532;49.398;2024-03-08T05:03:08;-1.70;47.44
69715;HTU21D;56981;53.532;49.398;2024-03-08T05:05:35;-1.04;45.51
69715;HTU21D;56981;53.532;49.398;2024-03-08T05:08:02;-1.12;44.87
69715;HTU21D;56981;53.532;49.398;2024-03-08T05:10:28;-0.65;44.21
69715;HTU21D;56981;53.532;49.398;2024-03-08T05:12:55;-0.10;42.83
69715;HTU21D;56981;53.532;49.398;2024-03-08T05:15:22;0.12;42.13
69715;HTU21D;56981;53.532;49.398;2024-03-08T05:17:49;0.35;41.94
69715;HTU21D;56981;53.532;49.398;2024-03-08T05:20:15;0.42;41.71
69715;HTU21D;56981;53.532;49.398;2024-03-08T05:22:43;0.98;39.78
69715;HTU21D;56981;53.532;49.398;2024-03-08T05:25:09;0.88;40.23
69715;HTU21D;56981;53.532;49.398;2024-03-08T05:27:36;1.04;40.32
69715;HTU21D;56981;53.532;49.398;2024-03-08T05:30:04;1.94;37.94
69715;HTU21D;56981;53.532;49.398;2024-03-08T05:47:39;3.24;34.99
69715;HTU21D;56981;53.532;49.398;2024-03-08T05:50:05;3.30;34.86
69715;HTU21D;56981;53.532;49.398;2024-03-08T05:52:35;2.56;37.01
69715;HTU21D;56981;53.532;49.398;2024-03-08T05:55:01;3.01;35.28
69715;HTU21D;56981;53.532;49.398;2024-03-08T05:57:28;3.20;34.79
69715;HTU21D;56981;53.532;49.398;2024-03-08T05:59:55;3.43;34.50
69715;HTU21D;56981;53.532;49.398;2024-03-08T06:02:23;3.92;32.96
69715;HTU21D;56981;53.532;49.398;2024-03-08T06:04:49;4.01;33.51
69715;HTU21D;56981;53.532;49.398;2024-03-08T06:07:15;3.53;33.87
69715;HTU21D;56981;53.532;49.398;2024-03-08T06:09:43;2.66;35.16
69715;HTU21D;56981;53.532;49.398;2024-03-08T06:12:14;2.64;36.63
69715;HTU21D;56981;53.532;49.398;2024-03-08T06:14:45;2.80;35.83
69715;HTU21D;56981;53.532;49.398;2024-03-08T06:17:15;3.09;36.17
69715;HTU21D;56981;53.532;49.398;2024-03-08T06:19:42;2.81;36.11
69715;HTU21D;56981;53.532;49.398;2024-03-08T06:22:08;3.26;35.89
69715;HTU21D;56981;53.532;49.398;2024-03-08T06:24:35;2.91;35.79
69715;HTU21D;56981;53.532;49.398;2024-03-08T06:27:03;2.42;37.95
69715;HTU21D;56981;53.532;49.398;2024-03-08T06:29:30;2.17;37.07
69715;HTU21D;56981;53.532;49.398;2024-03-08T06:31:56;2.21;38.48
69715;HTU21D;56981;53.532;49.398;2024-03-08T06:34:23;2.57;37.71
69715;HTU21D;56981;53.532;49.398;2024-03-08T06:36:49;2.52;38.06
69715;HTU21D;56981;53.532;49.398;2024-03-08T06:39:18;2.36;36.89
69715;HTU21D;56981;53.532;49.398;2024-03-08T06:41:44;2.64;37.74
69715;HTU21D;56981;53.532;49.398;2024-03-08T06:44:10;2.73;36.60
69715;HTU21D;56981;53.532;49.398;2024-03-08T06:46:37;2.76;36.12
69715;HTU21D;56981;53.532;49.398;2024-03-08T06:49:04;2.88;37.79
69715;HTU21D;56981;53.532;49.398;2024-03-08T06:51:30;3.04;36.06
69715;HTU21D;56981;53.532;49.398;2024-03-08T06:53:58;3.16;35.97
69715;HTU21D;56981;53.532;49.398;2024-03-08T06:56:24;2.78;37.17
69715;HTU21D;56981;53.532;49.398;2024-03-08T06:58:51;2.71;37.30
69715;HTU21D;56981;53.532;49.398;2024-03-08T07:01:18;2.97;36.43
69715;HTU21D;56981;53.532;49.398;2024-03-08T07:03:44;2.85;36.06
69715;HTU21D;56981;53.532;49.398;2024-03-08T07:06:11;2.67;37.24
69715;HTU21D;56981;53.532;49.398;2024-03-08T07:08:42;2.43;37.50
69715;HTU21D;56981;53.532;49.398;2024-03-08T07:11:09;3.32;35.98
69715;HTU21D;56981;53.532;49.398;2024-03-08T07:13:35;3.35;35.11
69715;HTU21D;56981;53.532;49.398;2024-03-08T07:16:02;3.12;35.81
69715;HTU21D;56981;53.532;49.398;2024-03-08T07:18:28;2.96;36.21
69715;HTU21D;56981;53.532;49.398;2024-03-08T07:20:59;3.46;36.30
69715;HTU21D;56981;53.532;49.398;2024-03-08T07:23:28;3.08;37.27
69715;HTU21D;56981;53.532;49.398;2024-03-08T07:26:17;2.98;37.06
69715;HTU21D;56981;53.532;49.398;2024-03-08T07:28:44;2.30;39.57
69715;HTU21D;56981;53.532;49.398;2024-03-08T07:31:14;2.72;39.18
69715;HTU21D;56981;53.532;49.398;2024-03-08T07:34:01;1.83;39.52
69715;HTU21D;56981;53.532;49.398;2024-03-08T07:36:29;1.22;42.10
69715;HTU21D;56981;53.532;49.398;2024-03-08T07:39:05;1.21;41.08
69715;HTU21D;56981;53.532;49.398;2024-03-08T07:41:35;1.06;41.74
69715;HTU21D;56981;53.532;49.398;2024-03-08T07:44:05;1.33;41.23
69715;HTU21D;56981;53.532;49.398;2024-03-08T07:46:32;1.25;41.84
69715;HTU21D;56981;53.532;49.398;2024-03-08T07:49:00;1.24;42.04
69715;HTU21D;56981;53.532;49.398;2024-03-08T07:51:26;1.04;42.31
69715;HTU21D;56981;53.532;49.398;2024-03-08T07:53:52;0.53;42.63
69715;HTU21D;56981;53.532;49.398;2024-03-08T07:56:19;0.24;43.17
69715;HTU21D;56981;53.532;49.398;2024-03-08T07:58:47;0.46;44.90
69715;HTU21D;56981;53.532;49.398;2024-03-08T08:01:19;0.81;44.32
69715;HTU21D;56981;53.532;49.398;2024-03-08T08:03:46;1.42;42.90
69715;HTU21D;56981;53.532;49.398;2024-03-08T08:06:17;1.69;41.76
69715;HTU21D;56981;53.532;49.398;2024-03-08T08:08:43;1.88;41.46
69715;HTU21D;56981;53.532;49.398;2024-03-08T08:11:09;1.87;40.95
69715;HTU21D;56981;53.532;49.398;2024-03-08T08:13:37;1.77;39.61
69715;HTU21D;56981;53.532;49.398;2024-03-08T08:16:03;1.71;40.39
69715;HTU21D;56981;53.532;49.398;2024-03-08T08:18:31;2.24;39.31
69715;HTU21D;56981;53.532;49.398;2024-03-08T08:20:59;2.42;39.30
69715;HTU21D;56981;53.532;49.398;2024-03-08T08:23:26;2.09;39.17
69715;HTU21D;56981;53.532;49.398;2024-03-08T08:25:53;1.58;41.15
69715;HTU21D;56981;53.532;49.398;2024-03-08T08:28:19;1.55;42.00
69715;HTU21D;56981;53.532;49.398;2024-03-08T08:30:45;0.73;43.20
69715;HTU21D;56981;53.532;49.398;2024-03-08T08:33:14;0.76;45.83
69715;HTU21D;56981;53.532;49.398;2024-03-08T08:35:41;0.94;42.94
69715;HTU21D;56981;53.532;49.398;2024-03-08T08:38:08;0.83;44.03
69715;HTU21D;56981;53.532;49.398;2024-03-08T08:40:35;0.76;43.13
69715;HTU21D;56981;53.532;49.398;2024-03-08T08:43:02;0.57;43.40
69715;HTU21D;56981;53.532;49.398;2024-03-08T08:45:32;0.31;44.84
69715;HTU21D;56981;53.532;49.398;2024-03-08T08:47:59;0.22;43.56
69715;HTU21D;56981;53.532;49.398;2024-03-08T08:50:26;0.27;44.92
69715;HTU21D;56981;53.532;49.398;2024-03-08T08:52:54;0.58;44.19
69715;HTU21D;56981;53.532;49.398;2024-03-08T08:55:21;0.64;43.74
69715;HTU21D;56981;53.532;49.398;2024-03-08T08:57:51;0.83;45.35
69715;HTU21D;56981;53.532;49.398;2024-03-08T09:00:19;0.42;43.93
69715;HTU21D;56981;53.532;49.398;2024-03-08T09:02:46;0.07;44.49
69715;HTU21D;56981;53.532;49.398;2024-03-08T09:05:13;0.05;45.70
69715;HTU21D;56981;53.532;49.398;2024-03-08T09:07:45;0.28;44.99
69715;HTU21D;56981;53.532;49.398;2024-03-08T09:10:11;0.30;44.34
69715;HTU21D;56981;53.532;49.398;2024-03-08T09:12:39;0.46;44.59
69715;HTU21D;56981;53.532;49.398;2024-03-08T09:15:11;0.18;45.30
69715;HTU21D;56981;53.532;49.398;2024-03-08T09:17:46;-0.32;46.41
69715;HTU21D;56981;53.532;49.398;2024-03-08T09:20:14;-0.40;46.14
69715;HTU21D;56981;53.532;49.398;2024-03-08T09:22:44;-0.42;45.60
69715;HTU21D;56981;53.532;49.398;2024-03-08T09:25:10;-0.65;46.30
69715;HTU21D;56981;53.532;49.398;2024-03-08T09:27:36;-0.85;47.61
69715;HTU21D;56981;53.532;49.398;2024-03-08T09:30:03;-1.05;48.06
69715;HTU21D;56981;53.532;49.398;2024-03-08T09:32:32;-1.05;47.79
69715;HTU21D;56981;53.532;49.398;2024-03-08T09:34:58;-1.08;48.28
69715;HTU21D;56981;53.532;49.398;2024-03-08T09:37:24;-0.83;47.38
69715;HTU21D;56981;53.532;49.398;2024-03-08T09:39:50;-1.03;48.50
69715;HTU21D;56981;53.532;49.398;2024-03-08T09:42:16;-0.86;48.41
69715;HTU21D;56981;53.532;49.398;2024-03-08T09:44:46;-0.91;48.73
69715;HTU21D;56981;53.532;49.398;2024-03-08T09:47:15;-0.71;48.44
69715;HTU21D;56981;53.532;49.398;2024-03-08T09:49:42;-0.67;48.89
69715;HTU21D;56981;53.532;49.398;2024-03-08T09:52:09;-0.40;47.35
69715;HTU21D;56981;53.532;49.398;2024-03-08T09:54:36;-0.25;47.74
69715;HTU21D;56981;53.532;49.398;2024-03-08T09:57:04;0.03;47.91
69715;HTU21D;56981;53.532;49.398;2024-03-08T09:59:30;0.33;46.94
69715;HTU21D;56981;53.532;49.398;2024-03-08T10:02:05;0.35;46.42
69715;HTU21D;56981;53.532;49.398;2024-03-08T10:04:31;0.49;47.15
69715;HTU21D;56981;53.532;49.398;2024-03-08T10:07:00;0.12;45.75
69715;HTU21D;56981;53.532;49.398;2024-03-08T10:09:26;0.07;46.86
69715;HTU21D;56981;53.532;49.398;2024-03-08T10:11:59;0.21;47.74
69715;HTU21D;56981;53.532;49.398;2024-03-08T10:14:26;0.33;46.07
69715;HTU21D;56981;53.532;49.398;2024-03-08T10:16:54;0.09;46.51
69715;HTU21D;56981;53.532;49.398;2024-03-08T10:19:26;0.15;47.01
69715;HTU21D;56981;53.532;49.398;2024-03-08T10:21:53;-0.10;48.46
69715;HTU21D;56981;53.532;49.398;2024-03-08T10:24:19;-0.17;47.69
69715;HTU21D;56981;53.532;49.398;2024-03-08T10:26:45;-0.30;48.31
69715;HTU21D;56981;53.532;49.398;2024-03-08T10:29:12;-0.62;49.76
69715;HTU21D;56981;53.532;49.398;2024-03-08T10:31:43;-0.61;49.81
69715;HTU21D;56981;53.532;49.398;2024-03-08T10:34:10;-0.46;49.82
69715;HTU21D;56981;53.532;49.398;2024-03-08T10:36:36;-0.23;49.54
69715;HTU21D;56981;53.532;49.398;2024-03-08T10:39:35;-0.09;48.06
69715;HTU21D;56981;53.532;49.398;2024-03-08T10:42:04;-0.38;49.19
69715;HTU21D;56981;53.532;49.398;2024-03-08T10:47:02;-0.34;51.24
69715;HTU21D;56981;53.532;49.398;2024-03-08T10:49:32;-0.00;49.21
69715;HTU21D;56981;53.532;49.398;2024-03-08T10:52:03;-0.08;48.72
69715;HTU21D;56981;53.532;49.398;2024-03-08T10:54:31;-0.38;50.04
69715;HTU21D;56981;53.532;49.398;2024-03-08T10:57:03;-0.41;49.78
69715;HTU21D;56981;53.532;49.398;2024-03-08T10:59:32;-0.43;50.94
69715;HTU21D;56981;53.532;49.398;2024-03-08T11:02:00;-0.57;50.61
69715;HTU21D;56981;53.532;49.398;2024-03-08T11:04:26;-0.59;51.87
69715;HTU21D;56981;53.532;49.398;2024-03-08T11:07:00;-0.53;51.37
69715;HTU21D;56981;53.532;49.398;2024-03-08T11:09:40;-0.58;51.43
69715;HTU21D;56981;53.532;49.398;2024-03-08T11:12:21;-0.70;52.41
69715;HTU21D;56981;53.532;49.398;2024-03-08T11:14:48;-0.71;52.30
69715;HTU21D;56981;53.532;49.398;2024-03-08T11:17:16;-0.77;52.39
69715;HTU21D;56981;53.532;49.398;2024-03-08T11:19:49;-0.57;52.33
69715;HTU21D;56981;53.532;49.398;2024-03-08T11:22:22;-0.13;52.84
69715;HTU21D;56981;53.532;49.398;2024-03-08T11:24:53;-0.16;51.93
69715;HTU21D;56981;53.532;49.398;2024-03-08T11:27:19;-0.41;50.70
69715;HTU21D;56981;53.532;49.398;2024-03-08T11:30:08;-0.77;52.16
69715;HTU21D;56981;53.532;49.398;2024-03-08T11:32:38;-1.03;52.62
69715;HTU21D;56981;53.532;49.398;2024-03-08T11:35:08;-0.97;53.04
69715;HTU21D;56981;53.532;49.398;2024-03-08T11:37:44;-0.90;53.83
69715;HTU21D;56981;53.532;49.398;2024-03-08T11:40:14;-0.95;53.01
69715;HTU21D;56981;53.532;49.398;2024-03-08T11:42:48;-1.16;54.55
69715;HTU21D;56981;53.532;49.398;2024-03-08T11:45:18;-0.98;54.11
69715;HTU21D;56981;53.532;49.398;2024-03-08T11:47:47;-0.99;54.28
69715;HTU21D;56981;53.532;49.398;2024-03-08T11:50:14;-1.05;54.03
69715;HTU21D;56981;53.532;49.398;2024-03-08T11:52:41;-1.13;53.77
69715;HTU21D;56981;53.532;49.398;2024-03-08T11:55:08;-1.17;54.02
69715;HTU21D;56981;53.532;49.398;2024-03-08T11:57:36;-1.14;55.03
69715;HTU21D;56981;53.532;49.398;2024-03-08T12:00:02;-1.05;54.22
69715;HTU21D;56981;53.532;49.398;2024-03-08T12:02:34;-1.13;54.87
69715;HTU21D;56981;53.532;49.398;2024-03-08T12:05:03;-1.08;54.58
69715;HTU21D;56981;53.532;49.398;2024-03-08T12:07:30;-1.00;54.20
69715;HTU21D;56981;53.532;49.398;2024-03-08T12:10:18;-1.03;55.39
69715;HTU21D;56981;53.532;49.398;2024-03-08T12:12:49;-0.99;55.42
69715;HTU21D;56981;53.532;49.398;2024-03-08T12:15:18;-1.16;55.10
69715;HTU21D;56981;53.532;49.398;2024-03-08T12:17:48;-1.02;56.07
69715;HTU21D;56981;53.532;49.398;2024-03-08T12:22:44;-1.04;55.36
69715;HTU21D;56981;53.532;49.398;2024-03-08T12:25:14;-1.00;55.84
69715;HTU21D;56981;53.532;49.398;2024-03-08T12:27:41;-0.96;55.05
69715;HTU21D;56981;53.532;49.398;2024-03-08T12:30:24;-1.03;54.89
69715;HTU21D;56981;53.532;49.398;2024-03-08T12:33:01;-1.13;56.61
69715;HTU21D;56981;53.532;49.398;2024-03-08T12:35:28;-1.06;55.82
69715;HTU21D;56981;53.532;49.398;2024-03-08T12:37:59;-1.11;55.59
69715;HTU21D;56981;53.532;49.398;2024-03-08T12:40:34;-1.28;56.59
69715;HTU21D;56981;53.532;49.398;2024-03-08T12:43:01;-1.34;56.85
69715;HTU21D;56981;53.532;49.398;2024-03-08T12:45:28;-1.36;56.33
69715;HTU21D;56981;53.532;49.398;2024-03-08T12:47:55;-1.25;56.74
69715;HTU21D;56981;53.532;49.398;2024-03-08T12:50:22;-1.36;56.36
69715;HTU21D;56981;53.532;49.398;2024-03-08T12:52:48;-1.50;57.13
69715;HTU21D;56981;53.532;49.398;2024-03-08T12:55:15;-1.52;57.33
69715;HTU21D;56981;53.532;49.398;2024-03-08T12:57:44;-1.56;57.86
69715;HTU21D;56981;53.532;49.398;2024-03-08T13:00:11;-1.57;59.34
69715;HTU21D;56981;53.532;49.398;2024-03-08T13:02:47;-1.54;58.56
69715;HTU21D;56981;53.532;49.398;2024-03-08T13:05:14;-1.68;58.23
69715;HTU21D;56981;53.532;49.398;2024-03-08T13:07:41;-1.61;58.95
69715;HTU21D;56981;53.532;49.398;2024-03-08T13:10:15;-1.55;58.67
69715;HTU21D;56981;53.532;49.398;2024-03-08T13:12:42;-1.54;58.43
69715;HTU21D;56981;53.532;49.398;2024-03-08T13:15:09;-1.55;58.21
69715;HTU21D;56981;53.532;49.398;2024-03-08T13:17:48;-1.60;58.45
69715;HTU21D;56981;53.532;49.398;2024-03-08T13:20:15;-1.62;58.93
69715;HTU21D;56981;53.532;49.398;2024-03-08T13:22:45;-1.65;58.77
69715;HTU21D;56981;53.532;49.398;2024-03-08T13:25:12;-1.61;59.57
69715;HTU21D;56981;53.532;49.398;2024-03-08T13:27:41;-1.62;60.26
69715;HTU21D;56981;53.532;49.398;2024-03-08T13:30:12;-1.67;59.76
69715;HTU21D;56981;53.532;49.398;2024-03-08T13:32:40;-1.58;58.85
69715;HTU21D;56981;53.532;49.398;2024-03-08T13:35:09;-1.58;59.22
69715;HTU21D;56981;53.532;49.398;2024-03-08T13:37:42;-1.74;61.09
69715;HTU21D;56981;53.532;49.398;2024-03-08T13:40:09;-1.74;60.22
69715;HTU21D;56981;53.532;49.398;2024-03-08T13:42:40;-1.79;59.73
69715;HTU21D;56981;53.532;49.398;2024-03-08T13:45:10;-1.82;60.28
69715;HTU21D;56981;53.532;49.398;2024-03-08T13:47:40;-1.84;60.11
69715;HTU21D;56981;53.532;49.398;2024-03-08T13:50:11;-2.01;60.97
69715;HTU21D;56981;53.532;49.398;2024-03-08T13:52:50;-2.03;61.26
69715;HTU21D;56981;53.532;49.398;2024-03-08T13:55:21;-2.10;62.15
69715;HTU21D;56981;53.532;49.398;2024-03-08T13:57:53;-2.18;61.81
69715;HTU21D;56981;53.532;49.398;2024-03-08T14:00:19;-2.28;62.49
69715;HTU21D;56981;53.532;49.398;2024-03-08T14:02:53;-2.35;62.99
69715;HTU21D;56981;53.532;49.398;2024-03-08T14:05:19;-2.44;63.51
69715;HTU21D;56981;53.532;49.398;2024-03-08T14:07:46;-2.54;63.74
69715;HTU21D;56981;53.532;49.398;2024-03-08T14:10:15;-2.54;64.31
69715;HTU21D;56981;53.532;49.398;2024-03-08T14:12:41;-2.57;64.25
69715;HTU21D;56981;53.532;49.398;2024-03-08T14:15:09;-2.59;64.41
69715;HTU21D;56981;53.532;49.398;2024-03-08T14:17:36;-2.60;65.37
69715;HTU21D;56981;53.532;49.398;2024-03-08T14:20:06;-2.71;65.43
69715;HTU21D;56981;53.532;49.398;2024-03-08T14:22:35;-2.76;65.61
69715;HTU21D;56981;53.532;49.398;2024-03-08T14:25:01;-2.75;65.84
69715;HTU21D;56981;53.532;49.398;2024-03-08T14:27:31;-2.78;65.88
69715;HTU21D;56981;53.532;49.398;2024-03-08T14:29:58;-2.86;65.90
69715;HTU21D;56981;53.532;49.398;2024-03-08T14:32:25;-2.88;66.17
69715;HTU21D;56981;53.532;49.398;2024-03-08T14:34:51;-2.89;66.32
69715;HTU21D;56981;53.532;49.398;2024-03-08T14:37:17;-2.88;66.56
69715;HTU21D;56981;53.532;49.398;2024-03-08T14:39:49;-2.91;66.54
69715;HTU21D;56981;53.532;49.398;2024-03-08T14:42:22;-2.93;67.26
69715;HTU21D;56981;53.532;49.398;2024-03-08T14:44:49;-2.98;67.49
69715;HTU21D;56981;53.532;49.398;2024-03-08T14:47:17;-2.93;67.17
69715;HTU21D;56981;53.532;49.398;2024-03-08T14:49:43;-2.98;67.22
69715;HTU21D;56981;53.532;49.398;2024-03-08T14:52:13;-2.96;67.80
69715;HTU21D;56981;53.532;49.398;2024-03-08T14:54:54;-2.95;68.45
69715;HTU21D;56981;53.532;49.398;2024-03-08T14:57:22;-3.00;67.83
69715;HTU21D;56981;53.532;49.398;2024-03-08T14:59:51;-3.04;67.91
69715;HTU21D;56981;53.532;49.398;2024-03-08T15:02:17;-3.02;68.46
69715;HTU21D;56981;53.532;49.398;2024-03-08T15:04:47;-3.02;68.57
69715;HTU21D;56981;53.532;49.398;2024-03-08T15:07:23;-3.00;68.43
69715;HTU21D;56981;53.532;49.398;2024-03-08T15:09:51;-3.00;68.42
69715;HTU21D;56981;53.532;49.398;2024-03-08T15:12:17;-3.06;69.26
69715;HTU21D;56981;53.532;49.398;2024-03-08T15:14:44;-3.05;68.95
69715;HTU21D;56981;53.532;49.398;2024-03-08T15:17:10;-3.03;69.19
69715;HTU21D;56981;53.532;49.398;2024-03-08T15:19:48;-3.04;68.58
69715;HTU21D;56981;53.532;49.398;2024-03-08T15:22:15;-3.08;69.37
69715;HTU21D;56981;53.532;49.398;2024-03-08T15:24:46;-3.15;68.53
69715;HTU21D;56981;53.532;49.398;2024-03-08T15:27:31;-3.22;69.40
69715;HTU21D;56981;53.532;49.398;2024-03-08T15:29:58;-3.19;69.73
69715;HTU21D;56981;53.532;49.398;2024-03-08T15:32:24;-3.20;70.08